Time;durP1;ratioP1;P1;durP2;ratioP2;P2;SDS_P1;SDS_P2;PMS_P1;PMS_P2;Temp;Humidity;BMP_temperature;BMP_pressure;BME280_temperature;BME280_humidity;BME280_pressure;Samples;Min_cycle;Max_cycle;Signal;HPM_P1;HPM_P2
2022/05/09 00:01:31;;;;;;;16.77;6.57;;;;;;;9.64;68.26;102550.53;6473976;23;20437;-82
2022/05/09 00:04:03;;;;;;;11.37;5.17;;;;;;;9.63;68.34;102543.59;6474687;23;20005;-83
2022/05/09 00:06:34;;;;;;;10.70;5.07;;;;;;;9.70;67.89;102542.84;6468664;23;20028;-82
2022/05/09 00:09:06;;;;;;;15.07;5.33;;;;;;;9.61;67.77;102543.56;6468146;23;20081;-82
2022/05/09 00:11:37;;;;;;;10.67;4.87;;;;;;;9.67;67.79;102533.25;6467536;23;20020;-82
2022/05/09 00:14:10;;;;;;;11.20;4.93;;;;;;;9.49;67.42;102532.91;6464952;23;20008;-82
2022/05/09 00:16:41;;;;;;;18.38;5.00;;;;;;;9.57;67.47;102531.31;6467747;23;20087;-81
2022/05/09 00:19:17;;;;;;;11.70;4.70;;;;;;;9.55;67.57;102538.22;6472493;23;20036;-83
2022/05/09 00:21:51;;;;;;;12.00;4.53;;;;;;;9.48;67.52;102526.81;6469339;23;20131;-83
2022/05/09 00:24:23;;;;;;;13.45;4.65;;;;;;;9.50;67.69;102524.25;6416350;23;20115;-80
2022/05/09 00:26:55;;;;;;;13.30;5.97;;;;;;;9.36;67.92;102529.19;6467729;23;20446;-81
2022/05/09 00:29:27;;;;;;;11.77;4.25;;;;;;;9.32;67.56;102524.75;6468386;23;20012;-81
2022/05/09 00:31:58;;;;;;;14.57;4.90;;;;;;;9.21;68.18;102526.25;6467597;23;20076;-82
2022/05/09 00:34:29;;;;;;;15.67;4.90;;;;;;;9.25;68.23;102528.09;6469643;23;20009;-82
2022/05/09 00:37:02;;;;;;;16.17;4.87;;;;;;;9.17;68.40;102524.44;6467294;23;20118;-81
2022/05/09 00:39:33;;;;;;;14.38;4.38;;;;;;;9.16;68.19;102522.69;6466521;23;20414;-82
2022/05/09 00:42:12;;;;;;;15.83;5.50;;;;;;;9.03;68.46;102522.44;6466739;23;20087;-79
2022/05/09 00:44:44;;;;;;;13.32;4.78;;;;;;;9.02;68.52;102525.88;6467769;23;20843;-81
2022/05/09 00:47:15;;;;;;;14.27;4.57;;;;;;;8.95;68.48;102518.75;6467666;23;20163;-82
2022/05/09 00:49:54;;;;;;;9.67;4.10;;;;;;;8.82;69.15;102522.81;6467462;23;20013;-82
2022/05/09 00:52:31;;;;;;;10.73;4.57;;;;;;;8.78;69.11;102520.13;6435694;23;20013;-82
2022/05/09 00:55:07;;;;;;;12.00;4.90;;;;;;;8.84;69.28;102522.84;6436442;23;20009;-81
2022/05/09 00:57:51;;;;;;;11.68;4.50;;;;;;;8.70;69.67;102525.16;6436555;23;20085;-82
2022/05/09 01:00:24;;;;;;;12.65;4.03;;;;;;;8.73;69.30;102520.03;6436101;23;20016;-81
2022/05/09 01:03:01;;;;;;;12.95;5.03;;;;;;;8.61;69.92;102518.00;6436340;23;20082;-82
2022/05/09 01:05:32;;;;;;;13.63;4.82;;;;;;;8.57;69.90;102516.19;6436751;23;20021;-80
2022/05/09 01:08:05;;;;;;;11.97;4.53;;;;;;;8.54;69.99;102510.94;6436468;23;20009;-81
2022/05/09 01:10:40;;;;;;;11.70;4.72;;;;;;;8.44;70.40;102508.97;6435386;23;20005;-82
2022/05/09 01:13:13;;;;;;;11.15;3.95;;;;;;;8.44;70.62;102506.38;6435839;23;20016;-81
2022/05/09 01:15:46;;;;;;;;;;;;;;;8.53;67.87;102507.47;6435858;23;20012;-82
2022/05/09 01:18:19;;;;;;;15.93;4.28;;;;;;;8.36;70.25;102503.53;6436042;23;20334;-83
2022/05/09 01:20:50;;;;;;;16.23;5.10;;;;;;;8.29;70.38;102499.03;6436229;23;20018;-80
2022/05/09 01:23:22;;;;;;;9.47;4.30;;;;;;;8.25;71.19;102499.81;6435440;23;20012;-80
2022/05/09 01:25:54;;;;;;;14.10;5.37;;;;;;;8.25;71.26;102492.00;6435599;23;20019;-79
2022/05/09 01:28:27;;;;;;;13.15;4.90;;;;;;;8.17;71.39;102502.22;6435174;23;20001;-80
2022/05/09 01:31:02;;;;;;;14.70;4.53;;;;;;;8.13;71.46;102500.38;6434841;23;20032;-79
2022/05/09 01:33:39;;;;;;;14.68;5.22;;;;;;;8.07;71.73;102493.31;6434384;23;20100;-79
2022/05/09 01:36:17;;;;;;;19.05;5.25;;;;;;;7.99;72.28;102500.91;6434776;23;20131;-80
2022/05/09 01:38:48;;;;;;;11.55;4.63;;;;;;;7.97;72.27;102496.50;6434653;23;20009;-79
2022/05/09 01:41:20;;;;;;;10.97;5.17;;;;;;;7.99;72.12;102490.53;6433038;23;20031;-79
2022/05/09 01:43:55;;;;;;;17.60;5.87;;;;;;;7.81;72.62;102490.06;6434132;23;20340;-78
2022/05/09 01:46:29;;;;;;;12.90;4.90;;;;;;;7.71;73.33;102488.94;6435718;23;20024;-78
2022/05/09 01:51:50;;;;;;;13.38;4.43;;;;;;;7.68;73.24;102494.06;6458500;23;20028;-80
2022/05/09 01:54:21;;;;;;;9.17;4.50;;;;;;;7.63;73.51;102487.84;6475949;23;20013;-80
2022/05/09 01:56:53;;;;;;;14.70;5.20;;;;;;;7.59;73.60;102488.59;6478362;23;20105;-79
2022/05/09 01:59:24;;;;;;;11.40;4.67;;;;;;;7.43;74.10;102495.97;6475821;23;20027;-80
2022/05/09 02:02:00;;;;;;;11.40;5.13;;;;;;;7.30;74.27;102499.06;6476699;23;20022;-77
2022/05/09 02:04:33;;;;;;;13.13;4.95;;;;;;;7.38;74.36;102492.38;6478582;23;20320;-81
2022/05/09 02:07:07;;;;;;;14.77;4.80;;;;;;;7.26;74.76;102499.78;6478569;23;20083;-81
2022/05/09 02:09:44;;;;;;;13.25;4.65;;;;;;;7.24;74.87;102494.56;6469327;23;20004;-80
2022/05/09 02:12:17;;;;;;;15.88;5.72;;;;;;;7.18;75.10;102494.41;6464819;23;20009;-80
2022/05/09 02:14:48;;;;;;;;;;;;;;;7.29;72.51;102494.69;6465841;23;20183;-80
2022/05/09 02:17:20;;;;;;;13.77;5.32;;;;;;;7.18;74.47;102499.59;6465186;23;19978;-80
2022/05/09 02:19:51;;;;;;;11.77;4.70;;;;;;;7.11;75.21;102485.53;6464966;23;20111;-78
2022/05/09 02:22:22;;;;;;;10.83;5.00;;;;;;;7.08;75.30;102488.09;6464812;23;20009;-79
2022/05/09 02:24:54;;;;;;;12.67;4.83;;;;;;;7.03;75.41;102484.44;6464434;23;20015;-79
2022/05/09 02:27:25;;;;;;;14.27;5.57;;;;;;;6.92;75.94;102485.84;6465232;23;20330;-79
2022/05/09 02:29:57;;;;;;;19.97;5.13;;;;;;;6.89;76.12;102485.75;6465291;23;20012;-80
2022/05/09 02:32:28;;;;;;;15.40;5.23;;;;;;;6.97;76.25;102488.59;6466046;23;20019;-79
2022/05/09 02:34:59;;;;;;;12.30;4.97;;;;;;;6.86;76.28;102483.97;6466586;23;20028;-79
2022/05/09 02:37:31;;;;;;;13.47;5.50;;;;;;;6.80;76.57;102481.19;6465996;23;20031;-80
2022/05/09 02:40:03;;;;;;;14.07;5.63;;;;;;;6.76;76.89;102481.91;6437917;23;20009;-79
2022/05/09 02:42:34;;;;;;;11.68;5.07;;;;;;;6.79;77.14;102476.81;6465886;23;20012;-79
2022/05/09 02:45:07;;;;;;;15.37;4.97;;;;;;;6.74;77.41;102481.00;6465428;23;20378;-79
2022/05/09 02:47:40;;;;;;;15.30;6.50;;;;;;;6.61;77.55;102477.16;6466055;23;20319;-80
2022/05/09 02:50:12;;;;;;;19.98;5.78;;;;;;;6.60;77.96;102472.81;6467189;23;20031;-80
2022/05/09 02:52:44;;;;;;;19.83;6.97;;;;;;;6.57;78.26;102473.59;6467852;23;20478;-80
2022/05/09 02:55:16;;;;;;;15.90;5.70;;;;;;;6.51;78.44;102476.00;6440599;23;20042;-80
2022/05/09 02:57:48;;;;;;;14.20;6.25;;;;;;;6.48;78.69;102478.47;6466849;23;20011;-80
2022/05/09 03:00:25;;;;;;;16.08;5.53;;;;;;;6.46;78.97;102476.69;6472499;23;20004;-79
2022/05/09 03:05:48;;;;;;;24.58;5.38;;;;;;;6.41;79.14;102473.06;6474752;23;20016;-79
2022/05/09 03:08:20;;;;;;;12.53;6.40;;;;;;;6.41;79.05;102473.06;6469567;23;20319;-79
2022/05/09 03:10:52;;;;;;;19.40;5.80;;;;;;;6.30;79.19;102471.00;6466906;23;20012;-81
2022/05/09 03:13:24;;;;;;;19.50;5.90;;;;;;;6.23;80.03;102473.34;6440057;23;20075;-78
2022/05/09 03:15:58;;;;;;;;;;;;;;;6.30;77.55;102472.75;6468024;23;20005;-80
2022/05/09 03:18:29;;;;;;;14.70;6.15;;;;;;;6.24;78.90;102478.59;6468447;23;20210;-80
2022/05/09 03:21:01;;;;;;;17.60;6.73;;;;;;;6.22;79.54;102472.47;6468391;23;20004;-81
2022/05/09 03:23:32;;;;;;;13.30;5.67;;;;;;;6.16;79.81;102470.56;6467914;23;20108;-80
2022/05/09 03:26:04;;;;;;;13.70;5.90;;;;;;;6.15;80.25;102466.22;6466639;23;20235;-80
2022/05/09 03:28:35;;;;;;;16.27;5.33;;;;;;;6.14;80.00;102469.63;6467488;23;20016;-80
2022/05/09 03:31:06;;;;;;;13.53;5.80;;;;;;;6.10;80.03;102459.13;6465851;23;20015;-81
2022/05/09 03:33:39;;;;;;;15.87;5.27;;;;;;;6.06;80.31;102462.47;6466241;23;20024;-81
2022/05/09 03:36:10;;;;;;;11.82;6.05;;;;;;;6.07;80.66;102459.94;6466565;23;20007;-81
2022/05/09 03:38:42;;;;;;;15.00;5.90;;;;;;;6.05;80.80;102460.69;6465893;23;20008;-81
2022/05/09 03:41:13;;;;;;;13.07;6.23;;;;;;;6.01;80.92;102452.81;6465611;23;20019;-80
2022/05/09 03:43:44;;;;;;;14.47;6.07;;;;;;;5.94;81.36;102450.84;6465166;23;20092;-80
2022/05/09 03:46:16;;;;;;;14.90;5.70;;;;;;;5.90;81.55;102458.44;6465878;23;20007;-80
2022/05/09 03:48:48;;;;;;;14.90;5.60;;;;;;;5.90;81.81;102461.03;6466177;23;20009;-80
2022/05/09 03:51:19;;;;;;;16.77;6.40;;;;;;;5.92;82.19;102456.78;6465863;23;20231;-80
2022/05/09 03:53:50;;;;;;;14.00;5.73;;;;;;;5.85;81.85;102456.56;6466069;23;20012;-82
2022/05/09 03:56:22;;;;;;;24.80;8.70;;;;;;;5.89;82.03;102451.50;6465405;23;20001;-80
2022/05/09 03:58:53;;;;;;;18.03;6.47;;;;;;;5.80;82.10;102452.97;6465235;23;20201;-80
2022/05/09 04:01:25;;;;;;;26.47;8.67;;;;;;;5.85;82.36;102459.16;6464953;23;20008;-80
2022/05/09 04:03:56;;;;;;;19.87;7.40;;;;;;;5.77;82.88;102455.44;6464260;23;20005;-80
2022/05/09 04:06:27;;;;;;;17.80;6.67;;;;;;;5.74;83.10;102455.34;6464563;23;20007;-81
2022/05/09 04:08:59;;;;;;;17.93;7.20;;;;;;;5.73;83.01;102451.00;6465382;23;20036;-80
2022/05/09 04:11:31;;;;;;;18.57;7.00;;;;;;;5.85;82.84;102458.28;6464949;23;20062;-80
2022/05/09 04:14:02;;;;;;;21.23;6.53;;;;;;;5.79;82.67;102453.78;6464962;23;20344;-81
2022/05/09 04:16:49;;;;;;;14.47;6.53;;;;;;;5.85;83.12;102460.88;6464906;23;20024;-80
2022/05/09 04:19:20;;;;;;;22.48;7.90;;;;;;;5.82;83.47;102456.47;6465217;23;20315;-80
2022/05/09 04:21:52;;;;;;;14.83;6.80;;;;;;;5.79;83.65;102456.38;6468644;23;20020;-82
2022/05/09 04:24:24;;;;;;;20.33;7.05;;;;;;;5.88;83.86;102457.53;6460808;23;20059;-81
2022/05/09 04:26:56;;;;;;;19.40;7.67;;;;;;;5.76;84.18;102447.63;6466632;23;20092;-81
2022/05/09 04:29:28;;;;;;;28.52;7.65;;;;;;;5.69;84.34;102456.91;6467026;23;20406;-82
2022/05/09 04:31:59;;;;;;;23.07;6.60;;;;;;;5.82;84.25;102453.00;6466015;23;20087;-82
2022/05/09 04:34:31;;;;;;;22.70;8.13;;;;;;;5.86;84.58;102447.13;6467187;23;20336;-82
2022/05/09 04:37:02;;;;;;;23.17;6.93;;;;;;;5.85;84.37;102442.75;6466201;23;20004;-82
2022/05/09 04:39:33;;;;;;;18.50;7.23;;;;;;;5.98;84.88;102449.25;6467023;23;20009;-82
2022/05/09 04:42:05;;;;;;;21.20;7.80;;;;;;;6.03;84.64;102450.28;6468516;23;20012;-82
2022/05/09 04:44:36;;;;;;;24.50;7.73;;;;;;;6.07;84.49;102443.50;6468716;23;20066;-81
2022/05/09 04:47:08;;;;;;;11.07;6.10;;;;;;;6.05;84.22;102443.44;6471154;23;20055;-82
2022/05/09 04:49:39;;;;;;;16.00;7.50;;;;;;;6.07;84.41;102446.09;6468726;23;20074;-82
2022/05/09 04:52:11;;;;;;;20.67;7.67;;;;;;;6.12;84.53;102445.41;6468793;23;20040;-81
2022/05/09 04:54:42;;;;;;;17.70;7.30;;;;;;;6.21;84.38;102450.00;6466945;23;20629;-81
2022/05/09 04:57:14;;;;;;;17.80;8.00;;;;;;;6.18;83.97;102440.44;6467781;23;20009;-82
2022/05/09 04:59:45;;;;;;;21.70;6.83;;;;;;;6.24;84.11;102439.75;6468573;23;20062;-83
2022/05/09 05:02:16;;;;;;;18.90;7.40;;;;;;;6.32;83.80;102437.41;6469956;23;20012;-82
2022/05/09 05:04:48;;;;;;;23.67;7.77;;;;;;;6.37;83.49;102443.59;6469649;23;20009;-82
2022/05/09 05:07:20;;;;;;;16.43;8.77;;;;;;;6.47;83.36;102436.97;6467823;23;20001;-82
2022/05/09 05:09:52;;;;;;;18.50;7.28;;;;;;;6.53;83.77;102432.00;6467448;23;20415;-83
2022/05/09 05:12:23;;;;;;;16.80;8.37;;;;;;;6.53;83.94;102432.88;6467150;23;20015;-83
2022/05/09 05:14:55;;;;;;;14.53;7.73;;;;;;;6.67;83.02;102433.28;6466835;23;20011;-82
2022/05/09 05:17:27;;;;;;;20.80;6.70;;;;;;;6.79;83.03;102434.47;6466439;23;20004;-83
2022/05/09 05:19:58;;;;;;;15.60;7.70;;;;;;;6.78;83.13;102443.09;6468933;23;20001;-82
2022/05/09 05:22:29;;;;;;;12.37;6.73;;;;;;;6.87;83.18;102439.03;6466650;23;20027;-82
2022/05/09 05:25:02;;;;;;;19.73;7.93;;;;;;;6.89;83.10;102440.00;6466902;23;20051;-82
2022/05/09 05:27:34;;;;;;;;;;;;;;;6.96;81.76;102441.03;6466305;23;20012;-83
2022/05/09 05:30:06;;;;;;;16.02;6.95;;;;;;;7.08;82.47;102441.41;6467714;23;20761;-82
2022/05/09 05:32:39;;;;;;;20.23;6.88;;;;;;;7.25;82.08;102444.44;6467582;23;20430;-82
2022/05/09 05:35:13;;;;;;;;;;;;;;;7.29;80.76;102443.72;6467693;23;20059;-83
2022/05/09 05:37:44;;;;;;;16.92;7.20;;;;;;;7.46;81.10;102445.88;6466073;23;19912;-84
2022/05/09 05:40:17;;;;;;;25.57;7.40;;;;;;;7.55;80.72;102440.03;6467505;23;20004;-83
2022/05/09 05:42:49;;;;;;;18.60;8.15;;;;;;;7.63;80.53;102443.72;6466620;23;20036;-82
2022/05/09 05:45:22;;;;;;;16.98;7.20;;;;;;;7.77;80.24;102442.34;6467473;23;20058;-82
2022/05/09 05:47:54;;;;;;;20.13;6.43;;;;;;;7.93;79.46;102437.56;6469734;23;20088;-82
2022/05/09 05:50:25;;;;;;;19.47;6.80;;;;;;;7.97;79.12;102437.66;6466227;23;20435;-82
2022/05/09 05:52:57;;;;;;;17.57;6.23;;;;;;;8.14;78.82;102442.38;6467266;23;20040;-82
2022/05/09 05:55:31;;;;;;;17.43;6.97;;;;;;;8.20;78.76;102434.75;6467618;23;20111;-82
2022/05/09 05:58:04;;;;;;;18.17;7.35;;;;;;;8.34;78.13;102433.34;6468517;23;20011;-83
2022/05/09 06:00:37;;;;;;;15.75;7.43;;;;;;;8.46;77.57;102442.28;6444817;23;20008;-81
2022/05/09 06:03:10;;;;;;;12.13;6.97;;;;;;;8.51;77.43;102440.69;6417030;23;20040;-83
2022/05/09 06:05:42;;;;;;;17.70;7.73;;;;;;;8.67;76.70;102444.50;6472326;23;20001;-82
2022/05/09 06:08:13;;;;;;;17.00;7.33;;;;;;;8.75;75.82;102451.59;6469437;23;20039;-82
2022/05/09 06:10:46;;;;;;;20.50;7.63;;;;;;;8.91;75.35;102444.13;6471624;23;20423;-82
2022/05/09 06:13:19;;;;;;;21.70;6.97;;;;;;;9.03;75.30;102436.59;6469332;23;20009;-82
2022/05/09 06:15:50;;;;;;;20.08;7.32;;;;;;;9.16;73.89;102447.22;6440462;23;20012;-81
2022/05/09 06:18:22;;;;;;;15.00;6.63;;;;;;;9.28;73.60;102440.53;6466645;23;20323;-82
2022/05/09 06:20:54;;;;;;;24.67;8.15;;;;;;;9.40;73.22;102439.91;6469587;23;20016;-82
2022/05/09 06:23:25;;;;;;;27.80;7.80;;;;;;;9.49;73.53;102439.19;6468769;23;20009;-81
2022/05/09 06:25:57;;;;;;;29.13;8.83;;;;;;;9.60;71.94;102437.66;6443385;23;20015;-81
2022/05/09 06:28:28;;;;;;;22.90;7.30;;;;;;;9.75;70.99;102433.56;6469556;23;20035;-82
2022/05/09 06:30:59;;;;;;;26.10;8.63;;;;;;;9.92;71.37;102439.03;6471071;23;20004;-82
2022/05/09 06:33:31;;;;;;;33.30;8.97;;;;;;;9.99;71.15;102435.69;6470566;23;20008;-82
2022/05/09 06:36:03;;;;;;;28.13;7.83;;;;;;;10.07;70.41;102439.31;6470477;23;20012;-83
2022/05/09 06:38:34;;;;;;;19.93;7.27;;;;;;;10.29;69.31;102440.50;6471526;23;20004;-81
2022/05/09 06:41:07;;;;;;;15.13;7.80;;;;;;;10.41;68.85;102439.84;6487737;23;20338;-82
2022/05/09 06:43:39;;;;;;;20.83;6.97;;;;;;;10.51;67.98;102430.41;6486031;23;20092;-82
2022/05/09 06:46:10;;;;;;;19.63;6.70;;;;;;;10.68;67.47;102428.06;6487342;23;20079;-81
2022/05/09 06:48:42;;;;;;;16.27;6.80;;;;;;;10.77;67.26;102436.88;6477826;23;20087;-82
2022/05/09 06:51:13;;;;;;;24.47;8.10;;;;;;;10.90;65.90;102427.47;6456916;23;20107;-81
2022/05/09 06:53:44;;;;;;;22.27;7.73;;;;;;;11.11;66.34;102425.97;6473281;23;20015;-81
2022/05/09 06:56:16;;;;;;;20.27;7.07;;;;;;;11.18;65.74;102430.38;6471133;23;20061;-82
2022/05/09 06:58:47;;;;;;;18.13;7.47;;;;;;;11.33;64.67;102427.06;6471061;23;20012;-83
2022/05/09 07:01:19;;;;;;;19.77;7.23;;;;;;;11.44;64.33;102428.03;6466554;23;20018;-82
2022/05/09 07:03:51;;;;;;;17.58;6.78;;;;;;;11.57;64.51;102428.16;6492469;23;20009;-83
2022/05/09 07:06:23;;;;;;;14.75;7.13;;;;;;;11.72;63.88;102428.31;6470637;23;20071;-82
2022/05/09 07:08:54;;;;;;;20.80;6.73;;;;;;;11.81;62.93;102430.13;6468688;23;20028;-82
2022/05/09 07:11:26;;;;;;;18.67;7.50;;;;;;;11.92;62.37;102433.75;6468543;23;20091;-83
2022/05/09 07:13:57;;;;;;;15.73;6.53;;;;;;;12.07;63.11;102430.34;6493822;23;20498;-83
2022/05/09 07:16:29;;;;;;;22.00;7.30;;;;;;;12.22;62.39;102424.38;6470156;23;20004;-82
2022/05/09 07:19:00;;;;;;;21.43;7.50;;;;;;;12.36;61.27;102422.75;6470866;23;20004;-82
2022/05/09 07:21:32;;;;;;;23.73;7.40;;;;;;;12.45;60.42;102418.44;6493334;23;20016;-82
2022/05/09 07:24:03;;;;;;;23.57;7.83;;;;;;;12.65;59.67;102423.75;6470525;23;20004;-83
2022/05/09 07:26:36;;;;;;;18.30;6.77;;;;;;;12.79;59.97;102429.06;6473534;23;20371;-82
2022/05/09 07:29:09;;;;;;;18.20;6.65;;;;;;;12.89;59.47;102433.44;6504446;23;20005;-82
2022/05/09 07:31:40;;;;;;;17.70;6.45;;;;;;;12.95;58.96;102429.09;6490744;23;20008;-81
2022/05/09 07:34:11;;;;;;;14.73;6.33;;;;;;;13.09;58.72;102426.53;6486018;23;20004;-81
2022/05/09 07:36:43;;;;;;;12.33;6.60;;;;;;;13.25;58.95;102421.31;6468751;23;20054;-81
2022/05/09 07:39:14;;;;;;;13.37;6.40;;;;;;;13.41;57.99;102423.16;6473555;23;20008;-81
2022/05/09 07:41:46;;;;;;;12.47;6.20;;;;;;;13.50;57.78;102422.28;6471125;23;20008;-81
2022/05/09 07:44:17;;;;;;;15.63;6.50;;;;;;;13.63;56.92;102412.69;6500890;23;20067;-83
2022/05/09 07:46:48;;;;;;;13.10;6.37;;;;;;;13.73;56.61;102419.69;6497839;23;20296;-83
2022/05/09 07:49:20;;;;;;;16.27;6.83;;;;;;;13.92;56.13;102420.56;6472347;23;20382;-82
2022/05/09 07:51:51;;;;;;;17.83;6.33;;;;;;;14.11;55.84;102426.66;6473059;23;20016;-83
2022/05/09 07:54:22;;;;;;;17.93;7.10;;;;;;;14.24;55.10;102427.50;6468861;23;20064;-80
2022/05/09 07:56:54;;;;;;;11.73;6.23;;;;;;;14.41;55.78;102419.63;6470446;23;20462;-81
2022/05/09 07:59:25;;;;;;;18.77;6.70;;;;;;;14.51;54.61;102413.47;6466384;23;20453;-81
2022/05/09 08:01:56;;;;;;;19.40;6.57;;;;;;;14.66;54.57;102424.81;6465397;23;20001;-82
2022/05/09 08:04:28;;;;;;;16.20;6.23;;;;;;;14.98;54.83;102429.06;6441137;23;20315;-81
2022/05/09 08:07:00;;;;;;;17.63;6.03;;;;;;;15.06;53.95;102427.28;6465801;23;20019;-80
2022/05/09 08:09:31;;;;;;;16.63;6.07;;;;;;;15.23;52.93;102420.16;6466551;23;20008;-81
2022/05/09 08:12:05;;;;;;;15.00;5.70;;;;;;;15.40;51.97;102425.31;6466104;23;20107;-80
2022/05/09 08:14:38;;;;;;;16.05;5.53;;;;;;;15.47;51.39;102418.25;6465309;23;20018;-80
2022/05/09 08:17:09;;;;;;;16.90;5.85;;;;;;;15.50;49.99;102423.47;6439408;23;20013;-81
2022/05/09 08:19:41;;;;;;;16.27;5.23;;;;;;;15.64;49.58;102416.38;6465819;23;20009;-80
2022/05/09 08:22:13;;;;;;;17.20;5.73;;;;;;;15.77;49.95;102419.81;6467912;23;20013;-81
2022/05/09 08:24:44;;;;;;;12.85;5.65;;;;;;;15.99;49.56;102423.13;6468399;23;20004;-80
2022/05/09 08:27:15;;;;;;;19.40;6.70;;;;;;;15.99;48.85;102420.50;6467511;23;20009;-79
2022/05/09 08:29:48;;;;;;;14.13;6.03;;;;;;;16.16;48.98;102422.09;6466933;23;20016;-80
2022/05/09 08:32:20;;;;;;;13.98;5.60;;;;;;;16.22;48.47;102422.88;6441104;23;20088;-80
2022/05/09 08:34:52;;;;;;;17.73;5.50;;;;;;;16.46;48.16;102420.03;6467260;23;20104;-80
2022/05/09 08:37:24;;;;;;;20.33;5.88;;;;;;;16.46;47.80;102415.63;6466302;23;20075;-79
2022/05/09 08:39:56;;;;;;;12.90;5.53;;;;;;;16.90;47.46;102418.63;6466448;23;20032;-78
2022/05/09 08:42:40;;;;;;;16.83;5.57;;;;;;;17.04;47.21;102416.69;6466811;23;20008;-79
2022/05/09 08:45:17;;;;;;;13.20;5.57;;;;;;;17.23;47.17;102419.94;6466396;23;20031;-79
2022/05/09 08:48:07;;;;;;;16.48;5.28;;;;;;;17.44;47.46;102417.88;6466264;23;20036;-80
2022/05/09 08:50:56;;;;;;;13.73;6.00;;;;;;;17.73;46.72;102419.19;6465969;23;20394;-79
2022/05/09 08:53:27;;;;;;;15.65;5.85;;;;;;;17.83;45.47;102416.34;6466142;23;20012;-79
2022/05/09 08:55:59;;;;;;;15.00;5.70;;;;;;;17.98;44.96;102412.63;6465548;23;20008;-80
2022/05/09 08:58:55;;;;;;;14.23;6.00;;;;;;;18.17;45.00;102413.13;6466005;23;20094;-80
2022/05/09 09:01:49;;;;;;;14.35;5.40;;;;;;;18.33;43.49;102415.50;6465910;23;20151;-80
2022/05/09 09:04:23;;;;;;;13.05;5.22;;;;;;;18.23;41.18;102401.59;6465846;23;20004;-80
2022/05/09 09:07:07;;;;;;;12.45;4.90;;;;;;;18.41;41.43;102409.16;6466959;23;20004;-79
2022/05/09 09:10:03;;;;;;;9.10;4.20;;;;;;;18.74;43.55;102404.09;6465861;23;20008;-79
2022/05/09 09:12:59;;;;;;;9.02;4.00;;;;;;;18.74;41.13;102390.88;6464651;23;20013;-80
2022/05/09 09:15:43;;;;;;;10.23;4.30;;;;;;;18.77;40.78;102393.47;6466196;23;20016;-79
2022/05/09 09:18:23;;;;;;;12.50;3.83;;;;;;;18.92;40.10;102387.00;6466154;23;20123;-80
2022/05/09 09:21:18;;;;;;;8.82;3.33;;;;;;;19.39;41.00;102396.50;6465751;23;20729;-78
2022/05/09 09:24:33;;;;;;;15.07;3.63;;;;;;;19.34;40.07;102390.47;6466837;23;20009;-80
2022/05/09 09:27:30;;;;;;;9.10;3.00;;;;;;;19.65;40.17;102388.78;6310131;23;20011;-80
2022/05/09 09:30:11;;;;;;;9.10;3.13;;;;;;;19.73;38.73;102382.44;6279619;23;20023;-79
2022/05/09 09:32:55;;;;;;;11.15;2.83;;;;;;;20.00;38.56;102383.53;6279748;23;20020;-80
2022/05/09 09:35:32;;;;;;;8.73;2.95;;;;;;;19.86;37.54;102390.03;6280361;23;20007;-80
2022/05/09 09:38:09;;;;;;;10.02;3.15;;;;;;;19.91;36.75;102381.97;6280159;23;20035;-80
2022/05/09 09:40:42;;;;;;;12.30;4.20;;;;;;;20.27;37.10;102387.19;6282110;23;20019;-80
2022/05/09 09:43:13;;;;;;;10.07;3.10;;;;;;;21.34;36.68;102370.75;6279654;23;20018;-79
2022/05/09 09:46:00;;;;;;;10.32;3.60;;;;;;;22.71;32.99;102373.88;6279819;23;20416;-79
2022/05/09 09:48:31;;;;;;;9.05;3.20;;;;;;;24.27;31.01;102378.94;6281710;23;20090;-79
2022/05/09 09:51:07;;;;;;;12.53;3.67;;;;;;;25.18;29.03;102380.03;6290104;23;20131;-80
2022/05/09 09:53:50;;;;;;;11.52;3.60;;;;;;;26.17;28.48;102375.88;6310031;23;20291;-80
2022/05/09 09:56:22;;;;;;;7.85;3.50;;;;;;;26.39;26.67;102377.41;6310564;23;20011;-79
2022/05/09 09:58:59;;;;;;;6.60;3.07;;;;;;;27.02;25.67;102367.72;6309731;23;20106;-79
2022/05/09 10:01:32;;;;;;;12.05;3.55;;;;;;;27.22;24.44;102370.06;6309446;23;20078;-80
2022/05/09 10:04:14;;;;;;;10.40;3.40;;;;;;;27.28;24.25;102366.19;6375148;23;20040;-80
2022/05/09 10:07:08;;;;;;;9.32;3.03;;;;;;;28.94;25.48;102360.44;6432618;23;20446;-80
2022/05/09 10:10:13;;;;;;;8.82;3.60;;;;;;;28.77;23.43;102358.00;6465656;23;20059;-79
2022/05/09 10:12:50;;;;;;;14.88;2.92;;;;;;;29.03;22.52;102359.84;6468358;23;20037;-80
2022/05/09 10:16:01;;;;;;;9.00;3.15;;;;;;;28.78;21.11;102352.53;6465845;23;20008;-79
2022/05/09 10:18:34;;;;;;;7.22;3.10;;;;;;;27.70;22.12;102353.88;6470992;23;20542;-80
2022/05/09 10:24:47;;;;;;;11.90;3.15;;;;;;;28.23;22.73;102348.88;6468125;23;20107;-79
2022/05/09 10:27:15;;;;;;;16.35;3.65;;;;;;;28.77;21.83;102337.41;6473362;23;20446;-80
2022/05/09 10:29:50;;;;;;;11.07;3.67;;;;;;;29.63;21.94;102333.44;6473205;23;20005;-79
2022/05/09 10:32:47;;;;;;;14.75;3.75;;;;;;;30.96;21.17;102340.13;6467183;23;20004;-79
2022/05/09 10:35:38;;;;;;;8.02;3.40;;;;;;;30.61;21.40;102330.13;6468901;23;20073;-80
2022/05/09 10:38:40;;;;;;;11.63;3.58;;;;;;;31.91;21.25;102330.09;6466218;23;20012;-79
2022/05/09 10:41:20;;;;;;;10.13;4.10;;;;;;;30.98;20.47;102324.69;6465743;23;20710;-80
2022/05/09 10:44:01;;;;;;;11.55;4.03;;;;;;;31.16;21.29;102326.00;6467964;23;20071;-77
2022/05/09 10:46:41;;;;;;;9.97;3.90;;;;;;;31.08;20.79;102321.19;6465688;23;20004;-78
2022/05/09 10:49:26;;;;;;;8.48;3.53;;;;;;;30.54;21.35;102317.13;6466013;23;20035;-78
2022/05/09 10:52:13;;;;;;;12.25;4.53;;;;;;;31.71;21.32;102326.28;6465896;23;20023;-78
2022/05/09 10:54:52;;;;;;;12.15;4.80;;;;;;;32.56;20.30;102321.34;6466225;23;20005;-79
2022/05/09 10:57:36;;;;;;;9.82;4.70;;;;;;;33.00;20.04;102311.38;6466748;23;20103;-78
2022/05/09 11:00:14;;;;;;;9.43;3.92;;;;;;;33.47;18.75;102309.16;6466524;23;20192;-78
2022/05/09 11:03:34;;;;;;;10.02;4.55;;;;;;;34.72;19.33;102305.34;6466869;23;20008;-78
2022/05/09 11:06:16;;;;;;;12.27;5.03;;;;;;;33.91;19.08;102309.00;6467351;23;20501;-79
2022/05/09 11:08:50;;;;;;;7.15;3.78;;;;;;;33.89;19.42;102305.56;6464987;23;20005;-78
2022/05/09 11:11:30;;;;;;;7.80;4.00;;;;;;;33.12;18.28;102302.25;6468098;23;20013;-79
2022/05/09 11:14:33;;;;;;;10.25;4.43;;;;;;;33.87;18.44;102294.88;6466812;23;20105;-79
2022/05/09 11:17:11;;;;;;;8.77;4.82;;;;;;;33.91;17.41;102293.63;6466349;23;20745;-79
2022/05/09 11:19:58;;;;;;;10.05;4.20;;;;;;;34.07;18.07;102290.41;6465687;23;20059;-80
2022/05/09 11:22:37;;;;;;;10.50;4.72;;;;;;;34.67;17.87;102293.06;6466194;23;20020;-79
2022/05/09 11:25:27;;;;;;;10.68;4.15;;;;;;;34.63;16.52;102286.25;6465735;23;20012;-78
2022/05/09 11:28:30;;;;;;;10.45;4.45;;;;;;;35.66;17.51;102285.69;6467210;23;20377;-79
2022/05/09 11:31:08;;;;;;;13.35;5.10;;;;;;;35.27;17.09;102272.25;6465742;23;20449;-79
2022/05/09 11:34:13;;;;;;;9.23;4.30;;;;;;;35.63;17.16;102267.84;6465350;23;20114;-79
2022/05/09 11:37:05;;;;;;;9.70;4.25;;;;;;;35.05;16.28;102267.00;6466398;23;20016;-79
2022/05/09 11:39:55;;;;;;;12.50;5.32;;;;;;;35.79;17.46;102272.66;6465506;23;20055;-79
2022/05/09 11:45:44;;;;;;;11.18;5.03;;;;;;;33.98;18.21;102262.31;6466778;23;20012;-78
2022/05/09 11:48:40;;;;;;;12.88;5.30;;;;;;;32.27;18.70;102254.44;6466287;23;20031;-78
2022/05/09 11:51:39;;;;;;;12.43;4.53;;;;;;;33.18;18.08;102247.69;6465514;23;20395;-78
2022/05/09 11:54:16;;;;;;;12.32;4.10;;;;;;;34.47;17.10;102237.19;6467304;23;20324;-77
2022/05/09 11:56:56;;;;;;;8.80;4.50;;;;;;;35.14;16.68;102243.56;6469151;23;20012;-79
2022/05/09 11:59:31;;;;;;;14.30;4.60;;;;;;;35.18;16.01;102241.41;6473904;23;20012;-78
2022/05/09 12:02:11;;;;;;;14.43;5.35;;;;;;;35.01;16.69;102238.47;6480264;23;20005;-80
2022/05/09 12:04:45;;;;;;;8.52;4.78;;;;;;;35.56;16.27;102235.03;6472230;23;20004;-78
2022/05/09 12:07:22;;;;;;;9.38;4.80;;;;;;;35.45;16.57;102237.94;6472451;23;20013;-79
2022/05/09 12:10:11;;;;;;;14.40;4.93;;;;;;;36.36;15.79;102228.22;6470357;23;20036;-80
2022/05/09 12:12:55;;;;;;;9.00;4.40;;;;;;;34.77;16.45;102221.84;6469800;23;20008;-80
2022/05/09 12:15:26;;;;;;;13.55;5.53;;;;;;;35.31;15.65;102227.56;6467947;23;20027;-78